Time;durP1;ratioP1;P1;durP2;ratioP2;P2;SDS_P1;SDS_P2;PMS_P1;PMS_P2;Temp;Humidity;BMP_temperature;BMP_pressure;BME280_temperature;BME280_humidity;BME280_pressure;Samples;Min_cycle;Max_cycle;Signal;HPM_P1;HPM_P2
2022/01/13 00:01:04;;;;;;;22.70;4.63;;;4.00;99.90;;;;;;4862724;29;20041;-92
2022/01/13 00:03:30;;;;;;;18.02;4.90;;;4.00;99.90;;;;;;4862689;29;20068;-94
2022/01/13 00:05:56;;;;;;;11.80;4.60;;;4.00;99.90;;;;;;4862968;29;20033;-93
2022/01/13 00:08:24;;;;;;;20.45;7.78;;;4.00;99.90;;;;;;4863245;29;20037;-93
2022/01/13 00:10:50;;;;;;;18.42;6.70;;;4.00;99.90;;;;;;4877804;29;20037;-93
2022/01/13 00:13:23;;;;;;;12.50;5.65;;;4.00;99.90;;;;;;4878374;29;20503;-93
2022/01/13 00:16:01;;;;;;;12.65;3.75;;;4.00;99.90;;;;;;4880484;29;20042;-93
2022/01/13 00:18:39;;;;;;;20.20;6.78;;;3.90;99.90;;;;;;4920618;29;20039;-96
2022/01/13 00:21:17;;;;;;;17.58;5.22;;;3.90;99.90;;;;;;4937951;29;20460;-95
2022/01/13 00:23:46;;;;;;;20.63;6.30;;;4.00;99.90;;;;;;4938829;29;20042;-94
2022/01/13 00:26:25;;;;;;;19.90;5.97;;;4.10;99.90;;;;;;4940676;29;20045;-95
2022/01/13 00:28:53;;;;;;;21.80;6.50;;;4.10;99.90;;;;;;4942886;29;20529;-93
2022/01/13 00:31:27;;;;;;;14.57;5.53;;;4.20;99.90;;;;;;4942841;29;20472;-94
2022/01/13 00:33:54;;;;;;;22.20;6.00;;;4.20;99.90;;;;;;4945169;29;20051;-95
2022/01/13 00:36:26;;;;;;;25.75;5.43;;;4.30;99.90;;;;;;4943381;29;20091;-96
2022/01/13 00:38:53;;;;;;;24.98;6.00;;;4.40;99.90;;;;;;4957260;29;20059;-94
2022/01/13 00:41:19;;;;;;;29.63;7.18;;;4.40;99.90;;;;;;4957281;29;20495;-94
2022/01/13 00:43:47;;;;;;;17.95;5.18;;;4.50;99.90;;;;;;4946101;29;20029;-95
2022/01/13 00:46:41;;;;;;;22.92;5.22;;;4.50;99.90;;;;;;4942467;29;20027;-94
2022/01/13 00:49:01;;;;;;;16.70;5.38;;;4.50;99.90;;;;;;4959110;29;20030;-95
2022/01/13 00:51:28;;;;;;;16.08;5.55;;;4.50;99.90;;;;;;4946831;29;20035;-93
2022/01/13 00:53:55;;;;;;;11.52;5.05;;;4.50;99.90;;;;;;4942994;29;20144;-94
2022/01/13 00:56:21;;;;;;;21.70;5.22;;;4.50;99.90;;;;;;4941922;29;20028;-93
2022/01/13 00:58:47;;;;;;;13.55;4.40;;;4.50;99.90;;;;;;4941918;29;20090;-93
2022/01/13 01:01:13;;;;;;;17.45;4.70;;;4.50;99.90;;;;;;4941890;29;20023;-93
2022/01/13 01:03:38;;;;;;;13.52;4.18;;;4.50;99.90;;;;;;4941651;29;20094;-93
2022/01/13 01:06:05;;;;;;;20.98;4.90;;;4.50;99.90;;;;;;4942399;29;20030;-94
2022/01/13 01:08:32;;;;;;;18.58;3.78;;;4.60;99.90;;;;;;4941242;29;20127;-95
2022/01/13 01:11:01;;;;;;;18.05;4.10;;;4.60;99.90;;;;;;4941149;29;20027;-94
2022/01/13 01:13:32;;;;;;;24.98;5.70;;;4.70;99.90;;;;;;4941782;29;20126;-94
2022/01/13 01:16:02;;;;;;;18.33;4.63;;;4.70;99.90;;;;;;4941758;29;20126;-95
2022/01/13 01:18:37;;;;;;;16.20;4.07;;;4.80;99.90;;;;;;4941633;29;20031;-94
2022/01/13 01:24:10;;;;;;;16.83;4.40;;;4.80;99.90;;;;;;4964800;29;20043;-94
2022/01/13 01:26:40;;;;;;;14.35;3.75;;;4.70;99.90;;;;;;4966652;29;20023;-95
2022/01/13 01:29:31;;;;;;;10.65;3.75;;;4.60;99.90;;;;;;4947491;29;20122;-92
2022/01/13 01:32:00;;;;;;;14.15;4.05;;;4.60;99.90;;;;;;4946451;29;20027;-93
2022/01/13 01:37:00;;;;;;;15.25;3.45;;;4.50;99.90;;;;;;4959016;28;20023;-94
2022/01/13 01:39:26;;;;;;;12.07;3.40;;;4.40;99.90;;;;;;4942102;29;20086;-94
2022/01/13 01:41:56;;;;;;;16.20;3.58;;;4.40;99.90;;;;;;4941366;29;20034;-92
2022/01/13 01:44:31;;;;;;;9.43;3.72;;;4.30;99.90;;;;;;4941150;29;20039;-93
2022/01/13 01:46:58;;;;;;;14.68;4.07;;;4.30;99.90;;;;;;4941153;29;20032;-94
2022/01/13 01:49:26;;;;;;;9.45;3.53;;;4.30;99.90;;;;;;4941118;29;20462;-93
2022/01/13 01:52:01;;;;;;;13.07;3.75;;;4.30;99.90;;;;;;4940963;29;20032;-93
2022/01/13 01:54:27;;;;;;;14.27;2.63;;;4.30;99.90;;;;;;4941436;29;20028;-93
2022/01/13 01:56:54;;;;;;;13.93;2.80;;;4.20;99.90;;;;;;4941310;29;20031;-93
2022/01/13 01:59:24;;;;;;;10.40;3.38;;;4.20;99.90;;;;;;4958462;29;20489;-95
2022/01/13 02:01:53;;;;;;;13.82;3.05;;;4.20;99.90;;;;;;4941048;29;20035;-93
2022/01/13 02:04:20;;;;;;;16.80;2.70;;;4.20;99.90;;;;;;4941360;29;20043;-93
2022/01/13 02:06:47;;;;;;;14.98;3.10;;;4.10;99.90;;;;;;4942043;29;20054;-94
2022/01/13 02:09:16;;;;;;;13.50;2.63;;;4.20;99.90;;;;;;4941961;29;20039;-94
2022/01/13 02:11:44;;;;;;;9.80;2.10;;;4.10;99.90;;;;;;4952445;29;20031;-94
2022/01/13 02:17:09;;;;;;;6.50;1.80;;;4.20;99.90;;;;;;4965564;29;20027;-95
2022/01/13 02:19:45;;;;;;;11.25;1.90;;;4.20;99.90;;;;;;4940482;29;20058;-93
2022/01/13 02:22:10;;;;;;;6.40;1.60;;;4.20;99.90;;;;;;4940416;29;20034;-95
2022/01/13 02:24:37;;;;;;;12.55;3.58;;;4.30;99.90;;;;;;4940295;29;20126;-96
2022/01/13 02:27:05;;;;;;;7.63;1.67;;;4.30;99.90;;;;;;4940133;29;20035;-95
2022/01/13 02:29:31;;;;;;;10.60;1.77;;;4.40;99.90;;;;;;4940301;29;20035;-94
2022/01/13 02:31:57;;;;;;;9.32;1.83;;;4.40;99.90;;;;;;4941012;29;20027;-93
2022/01/13 02:34:23;;;;;;;11.00;2.17;;;4.40;99.90;;;;;;4943712;29;20027;-93
2022/01/13 02:36:57;;;;;;;7.68;1.70;;;4.50;99.90;;;;;;4943314;29;20030;-94
2022/01/13 02:39:24;;;;;;;6.43;1.90;;;4.60;99.90;;;;;;4940067;29;20023;-94
2022/01/13 02:41:50;;;;;;;12.15;1.80;;;4.60;99.90;;;;;;4940086;29;20020;-93
2022/01/13 02:44:20;;;;;;;16.13;3.25;;;4.60;99.90;;;;;;4939879;29;20073;-94
2022/01/13 02:49:18;;;;;;;6.18;1.80;;;4.60;99.90;;;;;;4955847;28;20066;-92
2022/01/13 02:51:47;;;;;;;9.02;1.90;;;4.60;99.90;;;;;;4939635;29;20027;-94
2022/01/13 02:54:14;;;;;;;10.82;2.15;;;4.60;99.90;;;;;;4939332;29;20031;-92
2022/01/13 02:56:42;;;;;;;13.82;1.58;;;4.70;99.90;;;;;;4939379;29;20031;-96
2022/01/13 02:59:08;;;;;;;6.40;2.00;;;4.70;99.90;;;;;;4939672;29;20027;-95
2022/01/13 03:01:34;;;;;;;5.82;1.60;;;4.70;99.90;;;;;;4939669;29;20023;-92
2022/01/13 03:04:04;;;;;;;8.40;1.27;;;4.80;99.90;;;;;;4939493;29;20076;-93
2022/01/13 03:06:38;;;;;;;20.02;2.85;;;4.80;99.90;;;;;;4939816;29;20027;-95
2022/01/13 03:09:08;;;;;;;7.25;1.48;;;4.80;99.90;;;;;;4939429;29;20057;-94
2022/01/13 03:11:36;;;;;;;3.85;1.35;;;4.80;99.90;;;;;;4939475;29;20050;-96
2022/01/13 03:14:04;;;;;;;5.70;1.30;;;4.80;99.90;;;;;;4939221;29;20122;-94
2022/01/13 03:16:30;;;;;;;13.23;2.13;;;4.80;99.90;;;;;;4939072;29;20066;-96
2022/01/13 03:18:56;;;;;;;7.97;1.60;;;4.80;99.90;;;;;;4937681;28;20062;-93
2022/01/13 03:21:22;;;;;;;10.73;1.65;;;4.80;99.90;;;;;;4920161;29;20024;-92
2022/01/13 03:23:50;;;;;;;7.55;1.55;;;4.80;99.90;;;;;;4920447;29;20036;-94
2022/01/13 03:26:16;;;;;;;11.35;1.48;;;4.80;99.90;;;;;;4920054;29;20027;-93
2022/01/13 03:31:46;;;;;;;6.43;1.30;;;4.80;99.90;;;;;;4894589;29;20066;-93
2022/01/13 03:34:14;;;;;;;8.07;1.90;;;4.80;99.90;;;;;;4920024;29;20047;-94
2022/01/13 03:36:41;;;;;;;7.75;1.90;;;4.80;99.90;;;;;;4919987;29;20172;-94
2022/01/13 03:39:08;;;;;;;6.22;1.40;;;4.80;99.90;;;;;;4919833;29;20028;-93
2022/01/13 03:41:36;;;;;;;11.50;2.08;;;4.80;99.90;;;;;;4919864;29;20088;-94
2022/01/13 03:44:08;;;;;;;8.63;1.75;;;4.70;99.90;;;;;;4919829;29;20517;-93
2022/01/13 03:46:38;;;;;;;10.15;2.72;;;4.70;99.90;;;;;;4925117;29;20032;-94
2022/01/13 03:49:07;;;;;;;5.70;1.40;;;4.70;99.90;;;;;;4939338;29;20039;-95
2022/01/13 03:51:54;;;;;;;6.68;1.60;;;4.70;99.90;;;;;;4926144;29;20031;-94
2022/01/13 03:54:33;;;;;;;11.38;2.30;;;4.70;99.90;;;;;;4920541;29;20082;-92
2022/01/13 03:57:31;;;;;;;10.65;1.80;;;4.70;99.90;;;;;;4920316;29;20020;-93
2022/01/13 04:00:21;;;;;;;5.75;1.70;;;4.70;99.90;;;;;;4923879;29;20103;-92
2022/01/13 04:02:47;;;;;;;10.48;1.60;;;4.60;99.90;;;;;;4924944;29;20111;-93
2022/01/13 04:05:13;;;;;;;7.68;1.60;;;4.50;99.90;;;;;;4926199;29;20135;-93
2022/01/13 04:07:38;;;;;;;5.28;1.77;;;4.50;99.90;;;;;;4924644;29;20027;-93
2022/01/13 04:10:23;;;;;;;6.35;1.95;;;4.40;99.90;;;;;;4924076;29;20027;-93
2022/01/13 04:12:49;;;;;;;10.45;2.00;;;4.40;99.90;;;;;;4924314;29;20028;-93
2022/01/13 04:15:17;;;;;;;9.40;1.90;;;4.30;99.90;;;;;;4926114;29;20043;-95
2022/01/13 04:17:43;;;;;;;6.88;2.28;;;4.30;99.90;;;;;;4927831;29;20028;-93
2022/01/13 04:20:09;;;;;;;9.93;2.42;;;4.30;99.90;;;;;;4936955;29;20058;-93
2022/01/13 04:22:35;;;;;;;14.65;2.00;;;4.20;99.90;;;;;;4941889;29;20029;-94
2022/01/13 04:25:04;;;;;;;5.30;1.42;;;4.20;99.90;;;;;;4941102;29;20389;-93
2022/01/13 04:27:36;;;;;;;9.73;2.63;;;4.20;99.90;;;;;;4941547;29;20106;-94
2022/01/13 04:32:39;;;;;;;11.10;2.53;;;4.10;99.90;;;;;;4957807;29;20019;-95
2022/01/13 04:35:05;;;;;;;11.25;2.05;;;4.10;99.90;;;;;;4940899;29;20043;-95
2022/01/13 04:37:31;;;;;;;17.27;2.55;;;4.10;99.90;;;;;;4941566;29;20485;-92
2022/01/13 04:39:57;;;;;;;12.32;3.78;;;4.10;99.90;;;;;;4941300;29;20030;-94
2022/01/13 04:42:23;;;;;;;15.45;3.30;;;4.10;99.90;;;;;;4941107;29;20027;-94
2022/01/13 04:44:49;;;;;;;9.57;2.17;;;4.10;99.90;;;;;;4941233;29;20512;-92
2022/01/13 04:47:14;;;;;;;14.35;3.72;;;4.10;99.90;;;;;;4941302;29;20028;-94
2022/01/13 04:49:40;;;;;;;13.80;2.58;;;4.10;99.90;;;;;;4941382;29;20385;-95
2022/01/13 04:52:06;;;;;;;6.88;2.33;;;4.20;99.90;;;;;;4940953;29;20130;-95
2022/01/13 04:54:32;;;;;;;11.40;2.42;;;4.10;99.90;;;;;;4941084;29;20117;-93
2022/01/13 04:57:15;;;;;;;12.68;2.88;;;4.10;99.90;;;;;;4940787;29;20027;-94
2022/01/13 04:59:41;;;;;;;8.57;2.33;;;4.10;99.90;;;;;;4940883;29;20090;-95
2022/01/13 05:02:07;;;;;;;14.23;2.92;;;4.10;99.90;;;;;;4941214;29;20400;-95
2022/01/13 05:04:32;;;;;;;14.05;2.95;;;4.10;99.90;;;;;;4940771;29;20039;-94
2022/01/13 05:06:58;;;;;;;7.10;2.97;;;4.10;99.90;;;;;;4940521;29;20042;-94
2022/01/13 05:09:24;;;;;;;17.42;3.10;;;4.10;99.90;;;;;;4940286;29;20035;-94
2022/01/13 05:11:50;;;;;;;19.77;3.45;;;4.10;99.90;;;;;;4939978;29;20034;-95
2022/01/13 05:14:15;;;;;;;10.40;3.17;;;4.00;99.90;;;;;;4940760;29;20031;-93
2022/01/13 05:16:56;;;;;;;12.02;3.30;;;4.00;99.90;;;;;;4942874;29;20034;-94
2022/01/13 05:19:28;;;;;;;12.10;3.65;;;4.00;99.90;;;;;;4943668;29;20059;-92
2022/01/13 05:24:23;;;;;;;12.27;4.18;;;4.00;99.90;;;;;;4962787;29;20040;-93
2022/01/13 05:26:49;;;;;;;6.85;2.78;;;4.00;99.90;;;;;;4941004;29;20086;-94
2022/01/13 05:29:18;;;;;;;14.40;4.70;;;4.00;99.90;;;;;;4940515;29;20122;-94
2022/01/13 05:31:45;;;;;;;12.68;3.58;;;4.00;99.90;;;;;;4940466;29;20369;-95
2022/01/13 05:34:10;;;;;;;10.90;4.65;;;3.90;99.90;;;;;;4940877;29;20035;-94
2022/01/13 05:36:36;;;;;;;16.27;4.25;;;3.90;99.90;;;;;;4940814;29;20035;-93
2022/01/13 05:39:03;;;;;;;8.93;4.00;;;3.90;99.90;;;;;;4940533;29;20042;-93
2022/01/13 05:41:30;;;;;;;15.07;4.10;;;3.90;99.90;;;;;;4940403;29;20477;-93
2022/01/13 05:43:56;;;;;;;11.02;3.67;;;3.90;99.90;;;;;;4940214;29;20031;-94
2022/01/13 05:46:22;;;;;;;10.55;3.90;;;3.90;99.90;;;;;;4939986;29;20030;-94
2022/01/13 05:48:47;;;;;;;10.23;5.60;;;3.80;99.90;;;;;;4940246;29;20484;-93
2022/01/13 05:51:13;;;;;;;11.20;3.35;;;3.80;99.90;;;;;;4940210;29;20042;-94
2022/01/13 05:53:39;;;;;;;17.75;4.60;;;3.80;99.90;;;;;;4939789;29;20027;-94
2022/01/13 05:56:05;;;;;;;15.10;4.97;;;3.80;99.90;;;;;;4940042;29;20497;-94
2022/01/13 05:58:31;;;;;;;10.77;4.53;;;3.80;99.90;;;;;;4940332;29;20027;-95
2022/01/13 06:00:56;;;;;;;14.95;5.00;;;3.80;99.90;;;;;;4947800;29;20031;-95
2022/01/13 06:03:22;;;;;;;14.93;4.32;;;3.80;99.90;;;;;;4948427;29;20045;-95
2022/01/13 06:05:48;;;;;;;10.93;4.95;;;3.80;99.90;;;;;;4943333;29;20373;-93
2022/01/13 06:08:14;;;;;;;16.30;5.43;;;3.80;99.90;;;;;;4940635;29;20118;-93
2022/01/13 06:10:44;;;;;;;13.90;4.68;;;3.90;99.90;;;;;;4940150;29;20031;-95
2022/01/13 06:13:09;;;;;;;12.33;3.80;;;3.80;99.90;;;;;;4940441;29;20027;-95
2022/01/13 06:15:37;;;;;;;14.88;4.25;;;3.80;99.90;;;;;;4940123;29;20114;-95
2022/01/13 06:18:04;;;;;;;16.98;4.88;;;3.80;99.90;;;;;;4939983;29;20027;-94
2022/01/13 06:20:30;;;;;;;15.68;4.25;;;3.80;99.90;;;;;;4940072;29;20138;-94
2022/01/13 06:22:58;;;;;;;19.13;5.85;;;3.80;99.90;;;;;;4939322;29;20023;-93
2022/01/13 06:25:24;;;;;;;11.05;4.85;;;3.80;99.90;;;;;;4939486;29;20134;-95
2022/01/13 06:27:52;;;;;;;13.82;5.22;;;3.70;99.90;;;;;;4940500;29;20041;-93
2022/01/13 06:30:18;;;;;;;15.27;5.72;;;3.70;99.90;;;;;;4940077;29;20035;-94
2022/01/13 06:32:46;;;;;;;15.77;5.88;;;3.70;99.90;;;;;;4940513;29;20027;-93
2022/01/13 06:35:13;;;;;;;12.38;4.85;;;3.60;99.90;;;;;;4947988;29;20038;-96
2022/01/13 06:37:41;;;;;;;16.20;4.15;;;3.60;99.90;;;;;;4948448;29;20027;-92
2022/01/13 06:40:08;;;;;;;24.73;5.90;;;3.50;99.90;;;;;;4946243;29;20046;-95
2022/01/13 06:42:34;;;;;;;24.33;6.03;;;3.50;99.90;;;;;;4943426;29;20092;-95
2022/01/13 06:45:00;;;;;;;12.23;4.80;;;3.50;99.90;;;;;;4940628;29;20085;-94
2022/01/13 06:47:25;;;;;;;21.10;6.22;;;3.50;99.90;;;;;;4940661;29;20148;-95
2022/01/13 06:49:51;;;;;;;17.80;5.80;;;3.50;99.90;;;;;;4942531;29;20474;-94
2022/01/13 06:52:17;;;;;;;14.43;6.03;;;3.50;99.90;;;;;;4958456;29;20031;-92
2022/01/13 06:54:43;;;;;;;17.65;6.05;;;3.50;99.90;;;;;;4954140;29;20027;-95
2022/01/13 06:57:09;;;;;;;14.13;5.72;;;3.50;99.90;;;;;;4943446;29;20028;-96
2022/01/13 06:59:35;;;;;;;28.60;6.40;;;3.60;99.90;;;;;;5312483;23;20062;-96
2022/01/13 07:02:02;;;;;;;21.50;6.38;;;3.70;99.90;;;;;;4960970;28;20038;-95
2022/01/13 07:04:28;;;;;;;22.40;7.20;;;3.70;99.90;;;;;;4958095;28;20078;-95
2022/01/13 07:06:55;;;;;;;28.67;8.07;;;3.70;99.90;;;;;;4958177;28;20037;-91
2022/01/13 07:09:21;;;;;;;25.50;6.95;;;3.80;99.90;;;;;;4957376;28;20488;-94
2022/01/13 07:11:47;;;;;;;30.80;8.38;;;3.90;99.90;;;;;;4958358;28;20066;-93
2022/01/13 07:14:14;;;;;;;23.40;7.88;;;4.00;99.90;;;;;;4958270;28;20035;-94
2022/01/13 07:16:42;;;;;;;23.85;7.85;;;4.00;99.90;;;;;;4958116;28;20031;-94
2022/01/13 07:19:12;;;;;;;24.70;7.35;;;4.10;99.90;;;;;;4957630;28;20030;-94
2022/01/13 07:21:40;;;;;;;21.77;7.28;;;4.10;99.90;;;;;;4957221;28;20506;-95
2022/01/13 07:24:06;;;;;;;18.48;6.85;;;4.10;99.90;;;;;;4969894;28;20473;-94
2022/01/13 07:26:32;;;;;;;20.52;7.90;;;4.10;99.90;;;;;;4958666;28;20370;-95
2022/01/13 07:28:58;;;;;;;18.80;7.88;;;4.10;99.90;;;;;;4958153;28;20091;-96
2022/01/13 07:31:24;;;;;;;23.70;7.97;;;4.10;99.90;;;;;;4972083;28;20102;-95
2022/01/13 07:33:50;;;;;;;27.52;8.00;;;4.10;99.90;;;;;;4958787;28;20057;-96
2022/01/13 07:36:16;;;;;;;33.33;8.30;;;4.00;99.90;;;;;;4959992;28;20049;-96
2022/01/13 07:38:42;;;;;;;18.15;7.20;;;4.00;99.90;;;;;;4958908;28;20052;-93
2022/01/13 07:41:09;;;;;;;14.68;6.40;;;4.00;99.90;;;;;;4976649;28;20023;-95
2022/01/13 07:43:35;;;;;;;28.67;8.18;;;4.10;99.90;;;;;;4959158;28;20045;-95
2022/01/13 07:46:01;;;;;;;25.60;8.30;;;4.10;99.90;;;;;;4958356;28;20051;-95
2022/01/13 07:48:27;;;;;;;27.08;8.52;;;4.10;99.90;;;;;;4962474;28;20037;-94
2022/01/13 07:50:53;;;;;;;25.13;9.30;;;4.10;99.90;;;;;;4958490;28;20045;-95
2022/01/13 07:53:19;;;;;;;25.27;7.60;;;4.00;99.90;;;;;;4958591;28;20066;-94
2022/01/13 07:55:49;;;;;;;27.50;8.85;;;4.10;99.90;;;;;;4958710;28;20022;-95
2022/01/13 07:58:15;;;;;;;26.50;9.50;;;4.00;99.90;;;;;;4959274;28;20055;-95
2022/01/13 08:00:43;;;;;;;21.50;7.75;;;4.00;99.90;;;;;;4958633;28;20054;-93
2022/01/13 08:03:09;;;;;;;25.27;9.38;;;4.00;99.90;;;;;;4957456;28;20035;-94
2022/01/13 08:05:35;;;;;;;27.85;8.85;;;4.00;99.90;;;;;;4958307;28;20034;-94
2022/01/13 08:08:00;;;;;;;26.00;9.18;;;4.00;99.90;;;;;;4975326;28;20023;-93
2022/01/13 08:10:26;;;;;;;27.02;7.93;;;4.00;99.90;;;;;;4956813;28;21126;-94
2022/01/13 08:12:52;;;;;;;23.45;9.43;;;4.00;99.90;;;;;;4957304;28;20033;-94
2022/01/13 08:15:18;;;;;;;27.02;9.35;;;4.00;99.90;;;;;;4957156;28;20050;-92
2022/01/13 08:20:41;;;;;;;25.63;8.13;;;4.00;99.90;;;;;;4974920;28;20150;-94
2022/01/13 08:23:08;;;;;;;28.42;8.88;;;4.10;99.90;;;;;;4957355;28;20029;-94
2022/01/13 08:25:34;;;;;;;22.38;8.23;;;4.20;99.90;;;;;;4956798;28;20038;-93
2022/01/13 08:28:01;;;;;;;26.23;9.70;;;4.20;99.90;;;;;;4978964;28;20019;-94
2022/01/13 08:30:27;;;;;;;31.98;9.43;;;4.20;99.90;;;;;;4970262;28;20031;-94
2022/01/13 08:32:53;;;;;;;24.00;8.23;;;4.30;99.90;;;;;;4959266;28;20392;-93
2022/01/13 08:35:19;;;;;;;30.67;8.80;;;4.30;99.90;;;;;;4958484;28;20031;-93
2022/01/13 08:37:48;;;;;;;32.13;9.07;;;4.30;99.90;;;;;;4957628;28;20122;-92
2022/01/13 08:40:15;;;;;;;28.33;9.52;;;4.30;99.90;;;;;;4959169;28;20118;-93
2022/01/13 08:42:41;;;;;;;24.80;9.25;;;4.40;99.90;;;;;;4958444;28;20034;-94
2022/01/13 08:45:14;;;;;;;20.45;8.55;;;4.40;99.90;;;;;;4958457;28;20508;-93
2022/01/13 08:47:40;;;;;;;15.48;7.30;;;4.40;99.90;;;;;;4961441;28;20051;-92
2022/01/13 08:50:27;;;;;;;27.70;8.90;;;4.30;99.90;;;;;;4964009;28;20034;-95
2022/01/13 08:52:58;;;;;;;24.98;8.15;;;4.40;99.90;;;;;;4958828;28;20042;-93
2022/01/13 08:55:25;;;;;;;43.88;12.88;;;4.40;99.90;;;;;;4960916;28;20026;-93
2022/01/13 08:57:51;;;;;;;27.48;8.98;;;4.40;99.90;;;;;;4937862;28;20093;-92
2022/01/13 09:00:17;;;;;;;28.52;8.02;;;4.40;99.90;;;;;;4959254;28;20062;-95
2022/01/13 09:02:44;;;;;;;21.27;8.52;;;4.40;99.90;;;;;;4958783;29;20023;-93
2022/01/13 09:05:16;;;;;;;23.85;9.38;;;4.40;99.90;;;;;;4959172;28;20022;-93
2022/01/13 09:07:42;;;;;;;22.70;8.55;;;4.50;99.90;;;;;;4964978;28;20023;-93
2022/01/13 09:10:14;;;;;;;19.85;7.55;;;4.50;99.90;;;;;;4965357;28;20493;-94
2022/01/13 09:12:40;;;;;;;21.77;7.05;;;4.50;99.90;;;;;;4964394;28;20046;-94
2022/01/13 09:15:31;;;;;;;16.73;7.93;;;4.60;99.90;;;;;;4965140;28;20046;-94
2022/01/13 09:17:59;;;;;;;30.92;10.25;;;4.60;99.90;;;;;;4968931;28;20066;-93
2022/01/13 09:20:25;;;;;;;21.98;7.43;;;4.60;99.90;;;;;;4953222;28;20035;-94
2022/01/13 09:22:51;;;;;;;26.40;7.63;;;4.60;99.90;;;;;;4966058;28;20071;-94
2022/01/13 09:25:17;;;;;;;20.73;6.45;;;4.70;99.90;;;;;;4961052;28;20129;-94
2022/01/13 09:27:43;;;;;;;13.70;5.68;;;4.80;99.90;;;;;;4960628;28;20256;-95
2022/01/13 09:30:13;;;;;;;16.80;5.82;;;4.90;99.90;;;;;;4964641;28;20125;-94
2022/01/13 09:32:39;;;;;;;;;;;5.00;99.90;;;;;;4963259;28;20027;-95
2022/01/13 09:35:07;;;;;;;22.98;6.25;;;5.10;99.90;;;;;;4961472;28;20352;-95
2022/01/13 09:37:36;;;;;;;15.80;4.97;;;5.30;99.90;;;;;;4961947;28;20077;-95
2022/01/13 09:40:07;;;;;;;20.50;5.93;;;5.50;99.90;;;;;;4962811;28;20095;-92
2022/01/13 09:42:46;;;;;;;29.35;5.43;;;5.60;99.90;;;;;;4960588;28;20023;-93
2022/01/13 09:45:17;;;;;;;18.63;5.07;;;5.90;99.90;;;;;;4964521;28;20485;-94
2022/01/13 09:47:51;;;;;;;;;;;6.10;99.90;;;;;;4962702;28;20023;-94
2022/01/13 09:50:20;;;;;;;10.50;2.65;;;6.20;99.90;;;;;;4961613;28;20000;-94
2022/01/13 09:52:47;;;;;;;11.23;2.80;;;6.50;99.90;;;;;;4960414;28;20027;-91
2022/01/13 09:55:14;;;;;;;6.47;2.20;;;6.60;99.90;;;;;;4960441;28;20122;-95
2022/01/13 09:57:50;;;;;;;11.35;2.47;;;6.80;99.90;;;;;;4960222;28;20034;-92
2022/01/13 10:00:29;;;;;;;10.57;2.40;;;6.90;99.90;;;;;;4987588;28;20050;-94
2022/01/13 10:02:55;;;;;;;12.07;2.60;;;7.10;99.90;;;;;;4964441;28;20023;-94
2022/01/13 10:05:23;;;;;;;13.98;2.55;;;7.20;99.90;;;;;;4981936;28;20030;-94
2022/01/13 10:16:56;;;;;;;9.70;2.90;;;7.90;99.90;;;;;;4977068;28;20030;-92
2022/01/13 10:19:50;;;;;;;10.48;3.25;;;8.10;99.90;;;;;;4960030;28;20027;-94
2022/01/13 10:22:23;;;;;;;10.98;2.47;;;8.30;99.90;;;;;;4940738;29;20560;-93
2022/01/13 10:25:29;;;;;;;10.63;2.72;;;8.50;99.90;;;;;;4941611;28;20051;-93
2022/01/13 10:28:10;;;;;;;5.85;2.10;;;8.70;99.90;;;;;;4959350;28;20027;-95
2022/01/13 10:30:37;;;;;;;9.85;2.42;;;9.00;99.90;;;;;;4960072;28;20129;-95
2022/01/13 10:33:28;;;;;;;10.30;2.22;;;9.20;99.90;;;;;;4959314;28;20030;-92
2022/01/13 10:36:08;;;;;;;9.20;2.15;;;9.30;99.90;;;;;;4959064;28;20073;-95
2022/01/13 10:41:50;;;;;;;14.40;2.30;;;9.70;99.90;;;;;;4966135;28;20062;-94
2022/01/13 10:47:00;;;;;;;11.27;4.03;;;9.90;99.90;;;;;;4923316;28;20027;-94
2022/01/13 10:49:37;;;;;;;7.63;2.05;;;9.90;99.90;;;;;;4960182;29;20039;-92
2022/01/13 10:52:26;;;;;;;7.95;2.30;;;9.90;99.90;;;;;;4961263;29;20086;-94
2022/01/13 10:55:21;;;;;;;8.70;2.50;;;9.80;99.90;;;;;;4958513;29;20023;-94
2022/01/13 10:57:50;;;;;;;13.52;3.08;;;9.80;99.90;;;;;;4936344;29;20054;-94
2022/01/13 11:00:16;;;;;;;8.30;2.00;;;9.80;99.90;;;;;;4939221;29;20047;-95
2022/01/13 11:02:43;;;;;;;10.07;2.40;;;9.60;99.90;;;;;;4939221;29;20943;-93
2022/01/13 11:05:10;;;;;;;7.70;2.63;;;9.50;99.90;;;;;;4954503;29;20066;-93
2022/01/13 11:07:37;;;;;;;5.22;2.42;;;9.40;99.90;;;;;;4954733;29;20035;-92
2022/01/13 11:10:07;;;;;;;7.53;2.90;;;9.30;99.90;;;;;;4938940;29;20535;-94
2022/01/13 11:12:37;;;;;;;9.02;3.03;;;9.20;99.90;;;;;;4940610;29;20035;-92
2022/01/13 11:15:14;;;;;;;9.25;2.70;;;9.00;99.90;;;;;;4945284;29;20118;-95
2022/01/13 11:17:45;;;;;;;4.68;2.60;;;8.90;99.90;;;;;;4944919;29;20042;-94
2022/01/13 11:20:17;;;;;;;9.48;2.85;;;8.70;99.90;;;;;;4939016;29;20127;-92
2022/01/13 11:22:46;;;;;;;7.15;2.75;;;8.50;99.90;;;;;;4938892;29;20027;-94
2022/01/13 11:25:14;;;;;;;7.90;2.65;;;8.20;99.90;;;;;;4938723;29;20039;-93
2022/01/13 11:27:41;;;;;;;15.38;3.72;;;8.10;99.90;;;;;;4938508;29;20497;-92
2022/01/13 11:30:14;;;;;;;10.52;4.25;;;7.90;99.90;;;;;;4954817;29;20027;-94
2022/01/13 11:32:41;;;;;;;9.18;2.83;;;7.80;99.90;;;;;;4938799;29;20027;-94
2022/01/13 11:35:08;;;;;;;11.48;4.00;;;7.80;99.90;;;;;;4970459;28;20508;-92
2022/01/13 11:37:37;;;;;;;11.77;3.47;;;7.70;99.90;;;;;;4972116;28;20027;-92
2022/01/13 11:40:07;;;;;;;14.05;3.60;;;7.70;99.90;;;;;;4960036;29;20027;-95
2022/01/13 11:42:45;;;;;;;10.20;2.90;;;7.90;99.90;;;;;;4973950;28;20031;-93
2022/01/13 11:45:16;;;;;;;10.75;3.15;;;7.90;99.90;;;;;;4970486;28;20039;-93
2022/01/13 11:47:42;;;;;;;8.50;2.80;;;8.00;99.90;;;;;;4971408;28;20078;-94
2022/01/13 11:50:19;;;;;;;10.93;3.08;;;8.10;99.90;;;;;;4976660;28;20032;-92
2022/01/13 11:52:53;;;;;;;9.18;3.13;;;8.20;99.90;;;;;;4959743;29;20039;-93
2022/01/13 11:55:33;;;;;;;8.70;2.35;;;8.40;99.90;;;;;;4980646;28;20035;-94
2022/01/13 11:58:18;;;;;;;9.80;2.95;;;8.60;99.90;;;;;;4991635;28;20027;-93
2022/01/13 12:00:48;;;;;;;8.13;2.70;;;8.90;99.90;;;;;;4975992;28;20011;-95
2022/01/13 12:03:34;;;;;;;7.05;2.65;;;9.10;99.90;;;;;;4938771;29;20043;-93
2022/01/13 12:06:02;;;;;;;7.70;3.10;;;9.30;99.90;;;;;;4931421;29;20127;-93
2022/01/13 12:08:40;;;;;;;10.55;2.78;;;9.50;99.90;;;;;;4928010;29;20043;-94
2022/01/13 12:11:09;;;;;;;9.38;2.70;;;9.70;99.90;;;;;;4924304;29;20039;-95
2022/01/13 12:13:43;;;;;;;11.80;2.38;;;9.80;99.90;;;;;;4921186;29;20080;-94
2022/01/13 12:16:10;;;;;;;15.32;3.10;;;9.80;99.90;;;;;;4925999;29;20046;-96
2022/01/13 12:19:09;;;;;;;6.65;2.03;;;9.90;99.90;;;;;;4945674;29;20032;-93
2022/01/13 12:21:40;;;;;;;4.63;2.60;;;10.10;99.90;;;;;;4931928;29;20195;-94
2022/01/13 12:24:08;;;;;;;6.88;2.67;;;10.20;99.90;;;;;;4927341;29;20043;-93
2022/01/13 12:26:33;;;;;;;11.00;2.90;;;10.40;99.90;;;;;;4930316;29;20045;-95
2022/01/13 12:29:18;;;;;;;7.13;2.45;;;10.70;99.90;;;;;;4927784;29;20546;-94
2022/01/13 12:31:56;;;;;;;7.97;2.60;;;11.00;99.90;;;;;;4924713;29;20114;-95
2022/01/13 12:34:28;;;;;;;12.25;2.92;;;11.30;99.90;;;;;;4940181;29;20027;-94
2022/01/13 12:37:01;;;;;;;8.80;3.53;;;11.50;99.90;;;;;;4924132;29;20024;-93
2022/01/13 12:39:27;;;;;;;9.43;2.63;;;11.60;99.90;;;;;;4924130;29;20151;-94
2022/01/13 12:42:02;;;;;;;13.10;2.50;;;11.70;99.90;;;;;;4924428;29;20036;-93
2022/01/13 12:45:32;;;;;;;3.67;1.92;;;12.00;99.90;;;;;;4925828;29;20032;-94
2022/01/13 12:47:25;;;;;;;7.03;3.20;;;12.20;99.90;;;;;;4948198;29;20405;-93
2022/01/13 12:49:52;;;;;;;6.60;2.35;;;12.40;99.90;;;;;;4936900;29;20027;-94
2022/01/13 12:52:23;;;;;;;6.82;2.42;;;12.70;99.90;;;;;;4936723;29;20023;-96
2022/01/13 12:54:49;;;;;;;;;;;13.00;99.40;;;;;;4940505;29;20023;-94
2022/01/13 12:57:16;;;;;;;9.45;2.22;;;13.40;98.90;;;;;;4938810;29;19910;-94
2022/01/13 12:59:43;;;;;;;7.43;2.10;;;14.00;98.00;;;;;;4966405;28;20094;-96
2022/01/13 13:02:12;;;;;;;7.93;2.50;;;14.50;96.30;;;;;;4981084;28;20054;-94
2022/01/13 13:04:38;;;;;;;8.07;2.08;;;15.00;94.70;;;;;;4959850;28;20063;-95
2022/01/13 13:07:07;;;;;;;10.45;2.03;;;15.40;93.20;;;;;;4958987;29;20400;-95
2022/01/13 13:09:33;;;;;;;10.88;1.95;;;15.70;91.60;;;;;;4981932;28;20011;-95
2022/01/13 13:12:01;;;;;;;10.30;2.30;;;15.50;90.00;;;;;;4996706;28;20028;-94
2022/01/13 13:17:30;;;;;;;9.40;2.20;;;15.30;87.90;;;;;;4961211;29;20034;-93
2022/01/13 13:19:59;;;;;;;8.13;2.63;;;15.10;86.30;;;;;;4942595;29;20059;-94
2022/01/13 13:22:46;;;;;;;15.18;2.42;;;15.10;86.30;;;;;;4957805;29;20524;-94
2022/01/13 13:25:11;;;;;;;11.88;2.45;;;14.90;84.90;;;;;;4957904;29;20050;-95
2022/01/13 13:27:37;;;;;;;11.35;2.45;;;14.70;85.20;;;;;;4942098;29;20027;-94
2022/01/13 13:30:03;;;;;;;6.53;1.80;;;14.70;86.00;;;;;;4957850;29;20056;-94
2022/01/13 13:32:35;;;;;;;11.68;4.82;;;14.60;86.20;;;;;;4958202;28;20024;-95
2022/01/13 13:35:10;;;;;;;14.95;5.07;;;14.80;86.00;;;;;;4960593;29;20023;-94
2022/01/13 13:37:44;;;;;;;19.30;8.27;;;14.70;85.40;;;;;;4958400;29;20031;-95
2022/01/13 13:40:23;;;;;;;15.25;4.00;;;14.70;85.00;;;;;;4943571;29;20039;-94
2022/01/13 13:43:54;;;;;;;20.55;9.18;;;14.70;85.10;;;;;;4944126;29;20063;-96